Time;durP1;ratioP1;P1;durP2;ratioP2;P2;SDS_P1;SDS_P2;PMS_P1;PMS_P2;Temp;Humidity;BMP_temperature;BMP_pressure;BME280_temperature;BME280_humidity;BME280_pressure;Samples;Min_cycle;Max_cycle;Signal;HPM_P1;HPM_P2
2022/07/22 00:01:13;;;;;;;;;;;;;;;15.23;79.91;99282.97;4926198;29;20402;-64
2022/07/22 00:03:39;;;;;;;;;;;;;;;15.20;79.76;99281.66;4926337;29;19978;-65
2022/07/22 00:06:06;;;;;;;;;;;;;;;15.17;80.09;99276.78;4925847;29;19937;-66
2022/07/22 00:08:32;;;;;;;;;;;;;;;15.16;80.10;99288.94;4926326;29;19937;-66
2022/07/22 00:10:57;;;;;;;;;;;;;;;15.16;80.37;99286.19;4927860;29;20401;-66
2022/07/22 00:13:23;;;;;;;;;;;;;;;15.18;80.32;99283.91;4927534;29;19978;-65
2022/07/22 00:15:49;;;;;;;;;;;;;;;15.20;80.28;99291.88;4924508;29;20006;-65
2022/07/22 00:18:14;;;;;;;;;;;;;;;15.23;80.40;99286.53;4928206;29;20033;-65
2022/07/22 00:20:41;;;;;;;;;;;;;;;15.27;80.02;99294.97;4924531;29;19931;-68
2022/07/22 00:23:09;;;;;;;;;;;;;;;15.31;79.89;99285.75;4928385;29;19957;-66
2022/07/22 00:25:34;;;;;;;;;;;;;;;15.41;79.58;99286.59;4925888;29;19930;-66
2022/07/22 00:28:00;;;;;;;;;;;;;;;15.46;79.32;99286.44;4927395;29;19930;-66
2022/07/22 00:30:27;;;;;;;;;;;;;;;15.48;79.23;99280.63;4928509;29;19931;-65
2022/07/22 00:32:53;;;;;;;;;;;;;;;15.47;79.16;99285.31;4930029;29;19941;-64
2022/07/22 00:35:20;;;;;;;;;;;;;;;15.43;79.67;99289.84;4930063;29;19931;-66
2022/07/22 00:37:45;;;;;;;;;;;;;;;15.40;79.64;99282.22;4915853;29;19937;-65
2022/07/22 00:40:14;;;;;;;;;;;;;;;15.38;79.78;99285.28;4912475;29;19930;-67
2022/07/22 00:42:40;;;;;;;;;;;;;;;15.37;79.58;99291.09;4912263;29;20454;-66
2022/07/22 00:45:06;;;;;;;;;;;;;;;15.38;79.41;99281.72;4909638;29;20184;-67
2022/07/22 00:47:33;;;;;;;;;;;;;;;15.38;79.76;99287.25;4922058;29;19937;-64
2022/07/22 00:49:58;;;;;;;;;;;;;;;15.39;79.62;99283.34;4915810;29;19930;-66
2022/07/22 00:52:24;;;;;;;;;;;;;;;15.41;79.59;99283.84;4931824;29;20359;-67
2022/07/22 00:54:50;;;;;;;;;;;;;;;15.42;79.39;99294.53;4912138;29;19931;-65
2022/07/22 00:57:18;;;;;;;;;;;;;;;15.43;79.63;99289.84;4911198;29;19984;-67
2022/07/22 00:59:44;;;;;;;;;;;;;;;15.45;79.27;99284.81;4909958;29;19931;-66
2022/07/22 01:02:10;;;;;;;;;;;;;;;15.49;79.53;99290.50;4912598;29;19938;-68
2022/07/22 01:04:35;;;;;;;;;;;;;;;15.50;79.38;99289.38;4893503;29;19931;-66
2022/07/22 01:07:01;;;;;;;;;;;;;;;15.53;79.15;99289.56;4929384;29;20436;-65
2022/07/22 01:09:27;;;;;;;;;;;;;;;15.55;79.25;99289.22;4928952;29;19935;-64
2022/07/22 01:11:53;;;;;;;;;;;;;;;15.54;79.06;99302.19;4929554;29;20027;-64
2022/07/22 01:14:20;;;;;;;;;;;;;;;15.55;79.18;99300.22;4928684;29;20291;-66
2022/07/22 01:16:46;;;;;;;;;;;;;;;15.54;78.95;99298.59;4914491;29;19931;-65
2022/07/22 01:19:11;;;;;;;;;;;;;;;15.51;79.18;99302.81;4910887;29;20318;-65
2022/07/22 01:21:39;;;;;;;;;;;;;;;15.45;79.38;99304.09;4911121;29;19931;-65
2022/07/22 01:24:05;;;;;;;;;;;;;;;15.42;79.50;99311.03;4877673;29;20053;-63
2022/07/22 01:26:33;;;;;;;;;;;;;;;15.39;79.47;99308.94;4922005;29;20029;-65
2022/07/22 01:28:59;;;;;;;;;;;;;;;15.39;79.59;99310.91;4911821;29;19962;-65
2022/07/22 01:31:25;;;;;;;;;;;;;;;15.40;79.62;99318.81;4929169;29;19966;-66
2022/07/22 01:33:51;;;;;;;;;;;;;;;15.40;79.84;99315.28;4928134;29;20429;-64
2022/07/22 01:36:17;;;;;;;;;;;;;;;15.43;79.50;99312.66;4930261;29;19986;-66
2022/07/22 01:38:44;;;;;;;;;;;;;;;15.48;79.54;99319.19;4912948;29;19930;-64
2022/07/22 01:41:10;;;;;;;;;;;;;;;15.51;79.50;99313.81;4927381;29;19937;-64
2022/07/22 01:43:37;;;;;;;;;;;;;;;15.56;79.29;99312.88;4930165;29;19937;-66
2022/07/22 01:46:04;;;;;;;;;;;;;;;15.60;79.21;99316.59;4929948;29;19931;-65
2022/07/22 01:48:32;;;;;;;;;;;;;;;15.66;78.86;99315.34;4927822;29;20385;-64
2022/07/22 01:50:59;;;;;;;;;;;;;;;15.70;78.63;99315.50;4928045;29;19937;-64
2022/07/22 01:53:25;;;;;;;;;;;;;;;15.71;78.48;99308.88;4912466;29;20377;-65
2022/07/22 01:55:52;;;;;;;;;;;;;;;15.73;78.33;99314.88;4912509;29;19958;-64
2022/07/22 01:58:19;;;;;;;;;;;;;;;15.75;78.45;99320.88;4920835;29;19931;-65
2022/07/22 02:00:46;;;;;;;;;;;;;;;15.76;78.20;99314.22;4907052;29;19931;-63
2022/07/22 02:03:12;;;;;;;;;;;;;;;15.77;78.05;99321.34;4928418;29;20394;-66
2022/07/22 02:05:38;;;;;;;;;;;;;;;15.77;78.02;99318.59;4928096;29;20033;-66
2022/07/22 02:08:15;;;;;;;;;;;;;;;15.81;78.00;99316.81;4925674;29;19962;-67
2022/07/22 02:11:11;;;;;;;;;;;;;;;15.85;77.99;99317.81;4908462;29;19931;-66
2022/07/22 02:13:53;;;;;;;;;;;;;;;15.87;77.82;99323.81;4909575;29;19962;-64
2022/07/22 02:16:19;;;;;;;;;;;;;;;15.89;77.91;99320.75;4893073;29;19975;-66
2022/07/22 02:18:46;;;;;;;;;;;;;;;15.92;77.46;99325.63;4927642;29;20378;-64
2022/07/22 02:21:12;;;;;;;;;;;;;;;15.97;77.17;99342.00;4928714;29;20037;-64
2022/07/22 02:23:37;;;;;;;;;;;;;;;16.06;77.29;99349.47;4928463;29;20421;-66
2022/07/22 02:26:04;;;;;;;;;;;;;;;16.13;76.65;99333.28;4910909;29;20389;-66
2022/07/22 02:28:31;;;;;;;;;;;;;;;16.19;76.67;99339.44;4928362;29;19945;-64
2022/07/22 02:30:57;;;;;;;;;;;;;;;16.24;76.23;99331.81;4928444;29;19931;-64
2022/07/22 02:33:22;;;;;;;;;;;;;;;16.29;76.20;99341.84;4928148;29;19978;-66
2022/07/22 02:35:48;;;;;;;;;;;;;;;16.30;76.11;99346.22;4927464;29;19930;-65
2022/07/22 02:38:14;;;;;;;;;;;;;;;16.28;75.95;99343.00;4930744;29;20386;-64
2022/07/22 02:40:40;;;;;;;;;;;;;;;16.24;76.29;99347.53;4926490;29;20354;-66
2022/07/22 02:43:06;;;;;;;;;;;;;;;16.18;76.23;99359.88;4925940;29;20072;-66
2022/07/22 02:45:34;;;;;;;;;;;;;;;16.10;76.46;99361.50;4927350;29;19931;-66
2022/07/22 02:48:00;;;;;;;;;;;;;;;16.03;76.84;99359.22;4927425;29;19970;-65
2022/07/22 02:50:26;;;;;;;;;;;;;;;15.96;77.14;99372.66;4925495;29;19938;-65
2022/07/22 02:52:52;;;;;;;;;;;;;;;15.94;77.43;99372.16;4928202;29;19988;-64
2022/07/22 02:55:21;;;;;;;;;;;;;;;15.95;77.55;99374.59;4925812;29;19931;-63
2022/07/22 02:57:48;;;;;;;;;;;;;;;15.97;77.54;99379.78;4928062;29;19953;-64
2022/07/22 03:00:14;;;;;;;;;;;;;;;15.98;77.19;99373.97;4928434;29;20402;-66
2022/07/22 03:02:41;;;;;;;;;;;;;;;16.00;77.26;99368.94;4924968;29;19931;-65
2022/07/22 03:05:08;;;;;;;;;;;;;;;16.09;77.42;99381.94;4926909;28;19934;-64
2022/07/22 03:07:39;;;;;;;;;;;;;;;16.16;77.20;99383.09;4925208;29;19930;-67
2022/07/22 03:10:08;;;;;;;;;;;;;;;16.24;76.77;99380.63;4925431;29;19930;-64
2022/07/22 03:12:34;;;;;;;;;;;;;;;16.32;76.22;99379.03;4910406;29;19938;-64
2022/07/22 03:14:59;;;;;;;;;;;;;;;16.41;75.89;99385.38;4926254;29;19938;-65
2022/07/22 03:17:25;;;;;;;;;;;;;;;16.43;75.58;99378.38;4910697;29;20037;-63
2022/07/22 03:19:53;;;;;;;;;;;;;;;16.43;75.68;99383.88;4924766;29;19934;-64
2022/07/22 03:22:19;;;;;;;;;;;;;;;16.42;75.56;99393.31;4926172;29;19962;-63
2022/07/22 03:24:44;;;;;;;;;;;;;;;16.37;76.02;99384.38;4926306;29;20201;-64
2022/07/22 03:27:10;;;;;;;;;;;;;;;16.36;76.25;99400.13;4927073;29;19930;-67
2022/07/22 03:29:37;;;;;;;;;;;;;;;16.36;76.01;99397.38;4925141;29;20021;-66
2022/07/22 03:32:03;;;;;;;;;;;;;;;16.43;76.18;99399.66;4926040;29;20078;-66
2022/07/22 03:34:38;;;;;;;;;;;;;;;16.47;75.63;99403.38;4926956;29;19931;-66
2022/07/22 03:37:08;;;;;;;;;;;;;;;16.51;75.58;99400.78;4924812;29;19931;-66
2022/07/22 03:39:34;;;;;;;;;;;;;;;16.58;75.65;99407.44;4928718;29;19942;-64
2022/07/22 03:42:00;;;;;;;;;;;;;;;16.65;75.37;99406.94;4925966;29;19931;-66
2022/07/22 03:44:27;;;;;;;;;;;;;;;16.62;74.87;99391.03;4924616;29;19935;-66
2022/07/22 03:46:53;;;;;;;;;;;;;;;16.80;74.77;99400.09;4928258;29;20318;-63
2022/07/22 03:49:19;;;;;;;;;;;;;;;16.86;74.60;99411.78;4929077;29;19978;-66
2022/07/22 03:51:45;;;;;;;;;;;;;;;16.88;74.60;99409.50;4928185;29;20287;-66
2022/07/22 03:54:12;;;;;;;;;;;;;;;16.90;74.25;99418.28;4926301;29;19958;-64
2022/07/22 03:56:40;;;;;;;;;;;;;;;16.92;74.14;99417.97;4924870;29;19931;-65
2022/07/22 03:59:06;;;;;;;;;;;;;;;16.96;73.81;99427.22;4889598;29;19931;-65
2022/07/22 04:01:33;;;;;;;;;;;;;;;17.01;73.82;99419.59;4907250;29;19939;-64
2022/07/22 04:03:59;;;;;;;;;;;;;;;17.08;73.70;99423.81;4889595;29;19931;-64
2022/07/22 04:06:29;;;;;;;;;;;;;;;17.14;73.40;99425.28;4916045;29;19931;-67
2022/07/22 04:09:03;;;;;;;;;;;;;;;17.16;73.39;99434.03;4908298;29;20376;-66
2022/07/22 04:11:30;;;;;;;;;;;;;;;17.23;73.20;99431.56;4930751;29;20250;-64
2022/07/22 04:13:57;;;;;;;;;;;;;;;17.30;73.13;99431.06;4924601;29;19986;-65
2022/07/22 04:16:23;;;;;;;;;;;;;;;17.37;72.84;99430.56;4924505;29;19931;-65
2022/07/22 04:18:58;;;;;;;;;;;;;;;17.42;72.79;99433.97;4927691;29;20406;-65
2022/07/22 04:21:39;;;;;;;;;;;;;;;17.50;72.43;99423.22;4925066;29;20402;-65
2022/07/22 04:24:08;;;;;;;;;;;;;;;17.55;71.94;99428.56;4925960;29;19930;-66
2022/07/22 04:26:36;;;;;;;;;;;;;;;17.60;71.81;99442.19;4926961;29;19931;-67
2022/07/22 04:29:03;;;;;;;;;;;;;;;17.65;71.51;99432.91;4925284;29;19942;-66
2022/07/22 04:31:29;;;;;;;;;;;;;;;17.72;71.40;99435.97;4910905;29;19931;-67
2022/07/22 04:34:01;;;;;;;;;;;;;;;17.80;71.19;99434.31;4924312;29;20041;-67
2022/07/22 04:36:27;;;;;;;;;;;;;;;17.85;70.73;99439.66;4924733;29;19931;-67
2022/07/22 04:38:53;;;;;;;;;;;;;;;17.90;70.46;99438.66;4926011;29;19931;-66
2022/07/22 04:41:19;;;;;;;;;;;;;;;17.96;70.12;99443.69;4924845;29;19963;-64
2022/07/22 04:43:47;;;;;;;;;;;;;;;18.04;69.84;99436.50;4925106;29;19930;-64
2022/07/22 04:46:12;;;;;;;;;;;;;;;18.08;69.53;99444.94;4908972;29;19935;-66
2022/07/22 04:48:42;;;;;;;;;;;;;;;18.13;69.20;99451.06;4930480;29;19935;-66
2022/07/22 04:51:11;;;;;;;;;;;;;;;18.19;69.04;99445.38;4925821;29;20743;-65
2022/07/22 04:53:37;;;;;;;;;;;;;;;18.26;69.00;99449.22;4901368;29;19995;-65
2022/07/22 04:56:03;;;;;;;;;;;;;;;18.35;68.75;99462.19;4926176;28;19954;-66
2022/07/22 04:58:29;;;;;;;;;;;;;;;18.46;68.97;99462.59;4926008;29;20653;-65
2022/07/22 05:00:56;;;;;;;;;;;;;;;18.50;68.25;99456.06;4924458;29;19932;-65
2022/07/22 05:03:24;;;;;;;;;;;;;;;18.50;67.49;99467.13;4925350;29;20045;-65
2022/07/22 05:05:50;;;;;;;;;;;;;;;18.52;67.85;99466.81;4925199;29;19931;-64
2022/07/22 05:08:24;;;;;;;;;;;;;;;18.58;67.42;99467.41;4924264;29;19938;-65
2022/07/22 05:10:50;;;;;;;;;;;;;;;18.68;67.49;99480.84;4909275;29;20002;-65
2022/07/22 05:13:15;;;;;;;;;;;;;;;18.74;67.23;99473.16;4924881;29;19953;-65
2022/07/22 05:15:41;;;;;;;;;;;;;;;18.81;66.87;99463.16;4929404;29;19962;-66
2022/07/22 05:18:08;;;;;;;;;;;;;;;18.91;66.87;99477.75;4932234;29;19953;-66
2022/07/22 05:20:34;;;;;;;;;;;;;;;18.94;66.47;99474.28;4928289;29;19931;-65
2022/07/22 05:23:01;;;;;;;;;;;;;;;18.97;66.55;99470.84;4912777;29;19934;-65
2022/07/22 05:25:30;;;;;;;;;;;;;;;18.99;66.18;99472.16;4930166;29;19937;-65
2022/07/22 05:27:57;;;;;;;;;;;;;;;19.03;65.94;99474.25;4928644;29;19985;-69
2022/07/22 05:30:30;;;;;;;;;;;;;;;19.08;65.74;99474.03;4928999;29;20416;-65
2022/07/22 05:32:56;;;;;;;;;;;;;;;19.13;65.20;99476.59;4929485;29;19931;-64
2022/07/22 05:35:43;;;;;;;;;;;;;;;19.20;64.92;99478.78;4928543;29;20362;-66
2022/07/22 05:38:10;;;;;;;;;;;;;;;19.20;65.09;99481.56;4928507;29;19955;-67
2022/07/22 05:40:35;;;;;;;;;;;;;;;19.27;65.11;99488.16;4930334;29;19970;-65
2022/07/22 05:43:02;;;;;;;;;;;;;;;19.34;64.86;99470.97;4911818;29;20409;-64
2022/07/22 05:45:28;;;;;;;;;;;;;;;19.37;64.92;99475.88;4929185;29;19983;-65
2022/07/22 05:47:54;;;;;;;;;;;;;;;19.42;64.50;99481.19;4929383;29;20386;-64
2022/07/22 05:50:20;;;;;;;;;;;;;;;19.50;64.45;99475.88;4930729;29;19931;-65
2022/07/22 05:52:47;;;;;;;;;;;;;;;19.54;63.86;99482.38;4921480;29;19931;-67
2022/07/22 05:55:13;;;;;;;;;;;;;;;19.55;63.57;99484.00;4918331;29;19938;-67
2022/07/22 05:57:41;;;;;;;;;;;;;;;19.59;63.58;99487.69;4927413;29;20307;-67
2022/07/22 06:00:08;;;;;;;;;;;;;;;19.62;63.52;99483.44;4928042;29;19938;-65
2022/07/22 06:02:40;;;;;;;;;;;;;;;19.68;63.25;99488.41;4923769;29;19983;-65
2022/07/22 06:05:08;;;;;;;;;;;;;;;19.73;63.57;99483.78;4901574;29;19931;-65
2022/07/22 06:07:34;;;;;;;;;;;;;;;19.78;63.49;99487.16;4911287;29;19937;-66
2022/07/22 06:10:04;;;;;;;;;;;;;;;19.86;63.37;99484.59;4926005;29;19938;-65
2022/07/22 06:12:32;;;;;;;;;;;;;;;19.91;62.74;99487.97;4926837;29;20018;-65
2022/07/22 06:14:58;;;;;;;;;;;;;;;20.01;62.70;99485.94;4923507;29;20025;-67
2022/07/22 06:17:23;;;;;;;;;;;;;;;19.95;61.89;99468.69;4928611;29;20314;-67
2022/07/22 06:19:50;;;;;;;;;;;;;;;20.09;61.81;99488.59;4930930;29;19930;-66
2022/07/22 06:22:19;;;;;;;;;;;;;;;20.24;61.90;99480.72;4912576;29;20070;-66
2022/07/22 06:24:45;;;;;;;;;;;;;;;20.47;61.41;99491.31;4911437;29;20421;-68
2022/07/22 06:27:13;;;;;;;;;;;;;;;20.61;61.07;99486.22;4903093;29;19981;-67
2022/07/22 06:29:40;;;;;;;;;;;;;;;20.80;60.44;99493.09;4894567;29;20426;-67
2022/07/22 06:32:06;;;;;;;;;;;;;;;20.95;59.56;99494.38;4939453;29;19981;-67
2022/07/22 06:34:32;;;;;;;;;;;;;;;21.15;59.25;99495.34;4926136;29;19981;-67
2022/07/22 06:37:02;;;;;;;;;;;;;;;21.34;58.34;99499.41;4927617;29;19969;-66
2022/07/22 06:39:30;;;;;;;;;;;;;;;21.44;57.96;99489.75;4929375;29;21319;-66
2022/07/22 06:42:23;;;;;;;;;;;;;;;21.49;57.30;99492.25;4931272;29;19930;-65
2022/07/22 06:45:21;;;;;;;;;;;;;;;21.56;57.57;99486.91;4917375;29;20029;-65
2022/07/22 06:48:09;;;;;;;;;;;;;;;21.68;57.00;99484.03;4943107;29;20333;-65
2022/07/22 06:50:36;;;;;;;;;;;;;;;21.71;56.58;99493.66;4928359;29;19934;-65
2022/07/22 06:53:07;;;;;;;;;;;;;;;21.72;56.45;99491.69;4907722;29;19938;-65
2022/07/22 06:55:32;;;;;;;;;;;;;;;21.85;56.20;99489.63;4912445;29;19935;-65
2022/07/22 06:58:11;;;;;;;;;;;;;;;21.89;55.76;99491.34;4915393;29;20098;-64
2022/07/22 07:00:37;;;;;;;;;;;;;;;21.93;55.86;99483.88;4921941;29;19938;-65
2022/07/22 07:03:25;;;;;;;;;;;;;;;22.01;55.16;99497.97;4916049;29;19935;-67
2022/07/22 07:05:53;;;;;;;;;;;;;;;22.17;54.76;99496.00;4911408;29;19935;-65
2022/07/22 07:08:19;;;;;;;;;;;;;;;22.36;54.23;99488.88;4923575;29;19953;-65
2022/07/22 07:10:46;;;;;;;;;;;;;;;22.48;53.10;99499.09;4921241;29;20365;-64
2022/07/22 07:13:15;;;;;;;;;;;;;;;22.43;53.43;99504.94;4918896;29;19988;-65
2022/07/22 07:15:42;;;;;;;;;;;;;;;22.20;53.85;99500.84;4915895;29;20029;-64
2022/07/22 07:18:08;;;;;;;;;;;;;;;22.17;54.28;99509.91;4907972;29;20022;-65
2022/07/22 07:20:35;;;;;;;;;;;;;;;22.46;53.87;99507.78;4915185;29;20026;-65
2022/07/22 07:23:02;;;;;;;;;;;;;;;22.67;53.07;99503.91;4910459;29;20086;-64
2022/07/22 07:25:29;;;;;;;;;;;;;;;23.01;51.98;99511.78;4895881;29;20030;-64
2022/07/22 07:27:55;;;;;;;;;;;;;;;23.25;51.59;99501.50;4915810;29;20058;-65
2022/07/22 07:30:40;;;;;;;;;;;;;;;23.75;50.62;99501.66;4911199;29;20417;-65
2022/07/22 07:33:07;;;;;;;;;;;;;;;24.14;49.71;99489.56;4911600;29;20063;-66
2022/07/22 07:35:33;;;;;;;;;;;;;;;24.33;49.17;99503.44;4917593;29;20171;-65
2022/07/22 07:38:00;;;;;;;;;;;;;;;24.68;48.13;99498.72;4912035;29;19966;-67
2022/07/22 07:40:26;;;;;;;;;;;;;;;24.86;47.33;99492.59;4906754;29;19981;-67
2022/07/22 07:42:52;;;;;;;;;;;;;;;24.81;47.56;99504.91;4905177;29;19931;-65
2022/07/22 07:45:18;;;;;;;;;;;;;;;24.84;47.59;99506.16;4903312;29;20374;-66
2022/07/22 07:47:45;;;;;;;;;;;;;;;24.91;46.28;99504.25;4920775;29;19975;-65
2022/07/22 07:50:12;;;;;;;;;;;;;;;24.53;46.19;99506.09;4918076;29;19931;-65
2022/07/22 07:52:38;;;;;;;;;;;;;;;24.25;46.82;99509.28;4907095;29;19986;-65
2022/07/22 07:55:05;;;;;;;;;;;;;;;23.98;47.69;99514.78;4919630;29;19931;-67
2022/07/22 07:57:31;;;;;;;;;;;;;;;23.91;47.72;99516.28;4918995;29;19934;-67
2022/07/22 07:59:57;;;;;;;;;;;;;;;24.26;47.13;99514.47;4907938;29;19931;-67
2022/07/22 08:02:23;;;;;;;;;;;;;;;24.82;46.22;99502.91;4911488;29;19963;-67
2022/07/22 08:04:50;;;;;;;;;;;;;;;25.07;45.83;99503.25;4915719;29;20017;-66
2022/07/22 08:07:19;;;;;;;;;;;;;;;25.44;44.63;99507.22;4912995;29;19931;-66
2022/07/22 08:09:46;;;;;;;;;;;;;;;25.73;44.44;99504.75;4886568;29;19930;-68
2022/07/22 08:12:32;;;;;;;;;;;;;;;26.40;43.10;99502.13;4925251;29;19935;-67
2022/07/22 08:15:13;;;;;;;;;;;;;;;26.41;42.88;99507.34;4914529;29;20022;-66
2022/07/22 08:18:05;;;;;;;;;;;;;;;26.39;42.54;99500.50;4921458;29;20002;-68
2022/07/22 08:20:32;;;;;;;;;;;;;;;26.84;41.81;99503.97;4919525;29;19996;-67
2022/07/22 08:22:58;;;;;;;;;;;;;;;26.39;42.29;99501.31;4926681;29;20465;-66
2022/07/22 08:25:27;;;;;;;;;;;;;;;26.02;43.07;99505.00;4908899;29;19931;-66
2022/07/22 08:27:53;;;;;;;;;;;;;;;26.15;42.65;99502.72;4914277;29;19941;-68
2022/07/22 08:30:19;;;;;;;;;;;;;;;26.25;42.38;99513.22;4914259;29;19931;-67
2022/07/22 08:32:45;;;;;;;;;;;;;;;26.07;43.01;99513.06;4918185;29;19931;-67
2022/07/22 08:35:11;;;;;;;;;;;;;;;26.42;42.01;99506.13;4919090;29;19931;-68
2022/07/22 08:37:38;;;;;;;;;;;;;;;26.96;40.44;99511.25;4918048;29;19942;-67
2022/07/22 08:40:06;;;;;;;;;;;;;;;26.61;41.48;99518.25;4907865;29;20318;-65
2022/07/22 08:42:36;;;;;;;;;;;;;;;26.33;41.89;99522.47;4923524;29;19931;-66
2022/07/22 08:45:03;;;;;;;;;;;;;;;27.06;40.65;99525.72;4549593;29;9999913;-66
2022/07/22 08:47:29;;;;;;;;;;;;;;;27.24;39.76;99520.97;4568715;29;10000106;-65
2022/07/22 08:50:24;;;;;;;;;;;;;;;27.04;40.16;99520.50;4902788;29;19938;-66
2022/07/22 08:53:10;;;;;;;;;;;;;;;27.67;39.16;99520.31;4909426;29;19937;-65
2022/07/22 08:55:42;;;;;;;;;;;;;;;28.18;37.62;99531.63;4913907;29;19945;-66
2022/07/22 08:58:08;;;;;;;;;;;;;;;28.62;36.73;99528.72;4922662;28;19956;-66
2022/07/22 09:00:34;;;;;;;;;;;;;;;28.69;36.85;99525.91;4907677;29;20043;-66
2022/07/22 09:03:00;;;;;;;;;;;;;;;28.35;37.27;99524.34;4916814;28;20001;-68
2022/07/22 09:05:32;;;;;;;;;;;;;;;27.18;39.57;99526.16;4910619;29;19930;-67
2022/07/22 09:07:58;;;;;;;;;;;;;;;26.75;39.86;99529.56;4908260;29;20403;-66
2022/07/22 09:10:44;;;;;;;;;;;;;;;27.50;38.56;99533.09;4919502;29;20033;-68
2022/07/22 09:13:43;;;;;;;;;;;;;;;28.89;36.09;99534.72;4910743;29;20431;-66
2022/07/22 09:16:46;;;;;;;;;;;;;;;29.78;33.75;99534.66;4916661;29;20034;-68
2022/07/22 09:19:34;;;;;;;;;;;;;;;28.89;34.35;99528.28;4908128;29;19934;-67
2022/07/22 09:22:30;;;;;;;;;;;;;;;27.86;36.75;99533.16;4911730;29;19939;-66
2022/07/22 09:25:19;;;;;;;;;;;;;;;27.22;37.80;99542.19;4922424;29;20539;-66
2022/07/22 09:28:12;;;;;;;;;;;;;;;26.86;38.98;99537.25;4923065;29;19935;-67
2022/07/22 09:30:57;;;;;;;;;;;;;;;27.71;37.73;99549.22;4923662;29;19931;-65
2022/07/22 09:33:23;;;;;;;;;;;;;;;29.06;35.55;99538.66;4918451;29;19931;-65
2022/07/22 09:36:00;;;;;;;;;;;;;;;29.69;34.13;99534.34;4912817;29;20033;-65
2022/07/22 09:38:28;;;;;;;;;;;;;;;29.25;34.77;99543.00;4920934;29;19938;-65
2022/07/22 09:40:56;;;;;;;;;;;;;;;28.20;36.25;99539.63;4913439;29;20063;-66
2022/07/22 09:43:23;;;;;;;;;;;;;;;27.28;37.70;99541.44;4912729;29;19947;-66
2022/07/22 09:45:51;;;;;;;;;;;;;;;27.87;37.05;99543.19;4920240;29;19931;-66
2022/07/22 09:48:19;;;;;;;;;;;;;;;29.09;34.98;99537.84;4910449;29;20465;-64
2022/07/22 09:51:07;;;;;;;;;;;;;;;30.24;32.92;99531.91;4910562;29;19935;-66
2022/07/22 09:53:43;;;;;;;;;;;;;;;30.90;31.45;99534.91;4930372;29;19930;-67
2022/07/22 09:56:12;;;;;;;;;;;;;;;30.68;32.26;99538.78;4909253;29;19931;-67
2022/07/22 09:58:41;;;;;;;;;;;;;;;30.17;32.71;99534.81;4920384;29;19930;-68
2022/07/22 10:01:13;;;;;;;;;;;;;;;28.89;34.58;99534.72;4917564;29;20046;-66
2022/07/22 10:03:40;;;;;;;;;;;;;;;27.70;36.52;99538.38;4908447;29;20469;-67
2022/07/22 10:06:07;;;;;;;;;;;;;;;26.72;38.57;99537.94;4916001;29;19941;-68
2022/07/22 10:08:35;;;;;;;;;;;;;;;26.67;38.84;99552.34;4909719;29;19963;-68
2022/07/22 10:11:02;;;;;;;;;;;;;;;28.24;35.86;99549.66;4907319;29;19930;-66
2022/07/22 10:13:30;;;;;;;;;;;;;;;27.83;35.62;99542.41;4908547;29;19931;-67
2022/07/22 10:15:57;;;;;;;;;;;;;;;27.30;36.85;99541.03;4909754;29;19931;-67
2022/07/22 10:18:25;;;;;;;;;;;;;;;27.07;37.54;99546.97;4923556;29;20474;-66
2022/07/22 10:21:00;;;;;;;;;;;;;;;26.80;38.15;99550.00;4920588;29;19938;-69
2022/07/22 10:23:26;;;;;;;;;;;;;;;26.64;38.55;99550.31;4924654;29;19990;-67
2022/07/22 10:25:53;;;;;;;;;;;;;;;27.67;37.00;99551.19;4905497;29;20355;-67
2022/07/22 10:28:21;;;;;;;;;;;;;;;29.21;34.12;99547.03;4902407;29;19937;-68
2022/07/22 10:30:47;;;;;;;;;;;;;;;31.12;31.16;99547.53;4908202;29;19986;-66
2022/07/22 10:33:17;;;;;;;;;;;;;;;31.66;30.06;99546.03;4907004;29;20422;-66
2022/07/22 10:35:53;;;;;;;;;;;;;;;31.27;30.39;99550.19;4920257;29;19931;-66
2022/07/22 10:38:21;;;;;;;;;;;;;;;30.17;31.84;99543.28;4914728;29;19930;-66
2022/07/22 10:40:48;;;;;;;;;;;;;;;29.23;33.30;99548.25;4906327;29;20767;-65
2022/07/22 10:43:14;;;;;;;;;;;;;;;28.51;34.26;99557.69;4913757;29;19931;-65
2022/07/22 10:45:43;;;;;;;;;;;;;;;27.78;35.88;99548.38;4921375;29;19930;-66
2022/07/22 10:48:12;;;;;;;;;;;;;;;27.12;37.39;99563.41;4926766;29;20114;-66
2022/07/22 10:50:44;;;;;;;;;;;;;;;26.48;38.49;99562.63;4927605;29;19973;-66
2022/07/22 10:53:11;;;;;;;;;;;;;;;26.23;39.08;99554.84;4927095;29;20006;-66
2022/07/22 10:55:38;;;;;;;;;;;;;;;26.84;38.09;99557.25;4926845;29;19935;-67
2022/07/22 10:58:19;;;;;;;;;;;;;;;28.58;34.78;99560.47;4919470;29;19935;-67
2022/07/22 11:00:45;;;;;;;;;;;;;;;30.50;31.84;99550.19;4892291;29;19930;-67
2022/07/22 11:03:11;;;;;;;;;;;;;;;30.30;31.85;99554.84;4913145;29;19935;-67
2022/07/22 11:05:36;;;;;;;;;;;;;;;29.30;33.38;99558.66;4910753;29;19938;-68
2022/07/22 11:08:08;;;;;;;;;;;;;;;28.33;35.00;99560.50;4908950;29;20302;-67
2022/07/22 11:10:34;;;;;;;;;;;;;;;27.86;35.89;99557.63;4922146;29;19934;-67
2022/07/22 11:13:00;;;;;;;;;;;;;;;27.65;35.72;99558.41;4920163;29;19942;-67
2022/07/22 11:15:26;;;;;;;;;;;;;;;27.78;35.76;99556.81;4922054;29;19941;-65
2022/07/22 11:17:55;;;;;;;;;;;;;;;28.33;34.65;99563.31;4908463;29;20367;-67
2022/07/22 11:20:21;;;;;;;;;;;;;;;29.08;33.60;99557.97;4913920;29;19931;-67
2022/07/22 11:22:47;;;;;;;;;;;;;;;29.22;33.10;99557.91;4909828;29;19938;-66
2022/07/22 11:25:16;;;;;;;;;;;;;;;28.54;34.28;99556.03;4910552;29;19937;-67
2022/07/22 11:27:48;;;;;;;;;;;;;;;27.86;35.54;99557.63;4920889;29;19930;-65
2022/07/22 11:30:14;;;;;;;;;;;;;;;27.36;36.28;99559.09;4910331;29;19934;-67
2022/07/22 11:32:42;;;;;;;;;;;;;;;26.90;37.03;99557.72;4921083;29;19946;-67
2022/07/22 11:35:10;;;;;;;;;;;;;;;26.72;37.51;99561.19;4916234;29;19931;-67
2022/07/22 11:37:36;;;;;;;;;;;;;;;26.56;38.05;99555.88;4906067;29;19931;-66
2022/07/22 11:40:03;;;;;;;;;;;;;;;26.36;38.46;99555.31;4910307;29;19931;-66
2022/07/22 11:42:31;;;;;;;;;;;;;;;27.11;37.52;99547.78;4908607;29;19962;-68
2022/07/22 11:44:57;;;;;;;;;;;;;;;29.41;33.39;99544.53;4914948;29;20026;-67
2022/07/22 11:47:23;;;;;;;;;;;;;;;31.72;30.46;99549.19;4915993;28;19937;-66
2022/07/22 11:49:49;;;;;;;;;;;;;;;33.60;26.72;99550.59;4908161;29;19931;-66
2022/07/22 11:52:15;;;;;;;;;;;;;;;32.99;26.80;99543.41;4908812;29;19935;-66
2022/07/22 11:54:41;;;;;;;;;;;;;;;31.65;29.14;99541.59;4908272;29;20411;-66
2022/07/22 11:57:07;;;;;;;;;;;;;;;30.41;30.64;99535.81;4907146;29;19939;-65
2022/07/22 11:59:35;;;;;;;;;;;;;;;29.29;31.92;99538.16;4918805;29;19982;-65
2022/07/22 12:02:01;;;;;;;;;;;;;;;28.78;33.47;99539.53;4916931;29;19930;-66
2022/07/22 12:04:27;;;;;;;;;;;;;;;28.59;33.58;99531.13;4909759;28;20046;-66
2022/07/22 12:06:54;;;;;;;;;;;;;;;28.36;34.37;99539.22;4907935;29;19931;-65
2022/07/22 12:09:21;;;;;;;;;;;;;;;28.25;34.56;99550.44;4922842;29;19946;-66
2022/07/22 12:11:47;;;;;;;;;;;;;;;29.56;32.58;99542.47;4915362;29;19938;-67
2022/07/22 12:14:14;;;;;;;;;;;;;;;31.60;29.27;99542.06;4909240;29;19981;-66
2022/07/22 12:16:42;;;;;;;;;;;;;;;33.33;26.79;99545.94;4906204;29;20371;-66
2022/07/22 12:19:09;;;;;;;;;;;;;;;34.68;24.81;99539.88;4925857;29;19931;-66
2022/07/22 12:21:35;;;;;;;;;;;;;;;35.89;23.20;99545.22;4912004;29;20407;-66
2022/07/22 12:24:03;;;;;;;;;;;;;;;36.66;22.26;99540.63;4916670;29;20359;-64
2022/07/22 12:26:43;;;;;;;;;;;;;;;36.98;21.80;99543.53;4910265;29;19937;-66
2022/07/22 12:29:13;;;;;;;;;;;;;;;37.40;21.32;99531.78;4571044;28;10000041;-66
2022/07/22 12:31:43;;;;;;;;;;;;;;;37.10;21.88;99542.69;4920254;29;19931;-65
2022/07/22 12:34:08;;;;;;;;;;;;;;;36.44;22.62;99549.88;4928025;28;20053;-65
2022/07/22 12:36:34;;;;;;;;;;;;;;;35.04;23.68;99539.66;4914242;29;19931;-68
2022/07/22 12:39:10;;;;;;;;;;;;;;;33.24;25.87;99545.72;4909001;29;19938;-68
2022/07/22 12:41:44;;;;;;;;;;;;;;;31.38;27.96;99539.56;4912890;29;19954;-66
2022/07/22 12:44:14;;;;;;;;;;;;;;;30.30;30.05;99544.38;4902648;29;20330;-65
2022/07/22 12:46:45;;;;;;;;;;;;;;;29.88;30.76;99538.63;4918603;29;20325;-66
2022/07/22 12:49:11;;;;;;;;;;;;;;;29.78;30.99;99540.31;4912119;29;19931;-66
2022/07/22 12:51:37;;;;;;;;;;;;;;;31.02;29.27;99544.84;4915054;29;21639;-67
2022/07/22 12:54:03;;;;;;;;;;;;;;;30.97;29.68;99535.63;4916760;29;20480;-68